createdAt,value
2023-04-10T07:01:11.063Z,97036.16
2023-04-10T07:02:12.529Z,97045.50
2023-04-10T07:03:14.011Z,97046.63
2023-04-10T07:04:15.472Z,97046.78
2023-04-10T07:05:17.580Z,97051.91
2023-04-10T07:06:18.957Z,97046.78
2023-04-10T07:07:20.339Z,97048.47
2023-04-10T07:08:21.867Z,97038.50
2023-04-10T07:09:26.173Z,97045.94
2023-04-10T07:10:27.684Z,97046.22
2023-04-10T07:11:29.068Z,97029.19
2023-04-10T07:12:30.648Z,97055.75
2023-04-10T07:13:32.298Z,97044.81
2023-04-10T07:14:34.895Z,97049.06
2023-04-10T07:15:36.330Z,97045.94
2023-04-10T07:16:37.837Z,97043.75
2023-04-10T07:17:39.343Z,97037.72
2023-04-10T07:18:41.314Z,97056.84
2023-04-10T07:19:42.663Z,97048.16
2023-04-10T07:20:44.093Z,97057.22
2023-04-10T07:21:45.679Z,97046.50
2023-04-10T07:22:47.044Z,97048.97
2023-04-10T07:23:48.791Z,97045.91
2023-04-10T07:24:50.323Z,97050.25
2023-04-10T07:25:52.156Z,97046.97
2023-04-10T07:26:53.698Z,97049.03
2023-04-10T07:27:55.160Z,97043.00
2023-04-10T07:28:56.633Z,97048.81
2023-04-10T07:29:58.079Z,97047.25
2023-04-10T07:30:59.536Z,97035.94
2023-04-10T07:32:01.176Z,97043.78
2023-04-10T07:33:02.786Z,97046.81
2023-04-10T07:34:04.411Z,97057.34
2023-04-10T07:35:07.175Z,97050.56
2023-04-10T07:36:08.957Z,97048.72
2023-04-10T07:37:10.447Z,97054.78
2023-04-10T07:38:12.259Z,97050.28
2023-04-10T07:39:13.793Z,97045.84
2023-04-10T07:40:15.433Z,97050.13
2023-04-10T07:41:17.008Z,97053.00
2023-04-10T07:42:18.349Z,97058.09
2023-04-10T07:43:19.740Z,97054.53
2023-04-10T07:44:21.482Z,97053.75
2023-04-10T07:45:22.931Z,97050.56
2023-04-10T07:46:24.485Z,97042.88
2023-04-10T07:47:26.331Z,97050.31
2023-04-10T07:48:27.867Z,97047.13
2023-04-10T07:49:29.420Z,97058.63
2023-04-10T07:50:31.082Z,97050.59
2023-04-10T07:51:32.466Z,97050.31
2023-04-10T07:52:33.981Z,97051.53
2023-04-10T07:53:36.625Z,97041.56
2023-04-10T07:54:38.183Z,97046.88
2023-04-10T07:55:42.361Z,97047.50
2023-04-10T07:58:02.083Z,97046.25
2023-04-10T07:59:03.604Z,97037.97
2023-04-10T08:00:05.574Z,97040.81
2023-04-10T08:01:07.051Z,97048.47
2023-04-10T08:02:08.587Z,97040.59
2023-04-10T08:03:12.593Z,97036.94
2023-04-10T08:04:14.466Z,97034.09
2023-04-10T08:05:16.206Z,97035.72
2023-04-10T08:06:17.588Z,97046.47
2023-04-10T08:07:22.294Z,97036.03
2023-04-10T08:08:23.706Z,97040.41
2023-04-10T08:09:25.327Z,97034.38
2023-04-10T08:10:27.234Z,97035.75
2023-04-10T08:11:31.089Z,97031.88
2023-04-10T08:12:34.389Z,97024.44
2023-04-10T08:13:36.122Z,97047.38
2023-04-10T08:14:37.471Z,97031.81
2023-04-10T08:15:38.851Z,97044.25
2023-04-10T08:16:40.356Z,97035.94
2023-04-10T08:17:41.976Z,97035.16
2023-04-10T08:18:43.417Z,97020.88
2023-04-10T08:19:44.841Z,97038.25
2023-04-10T08:20:46.178Z,97028.03
2023-04-10T08:21:47.586Z,97034.53
2023-04-10T08:22:49.119Z,97031.78
2023-04-10T08:23:51.871Z,97027.69
2023-04-10T08:24:53.391Z,97041.91
2023-04-10T08:25:54.896Z,97036.34
2023-04-10T08:26:56.282Z,97046.03
2023-04-10T08:27:57.823Z,97030.00
2023-04-10T08:29:00.609Z,97041.50
2023-04-10T08:30:02.401Z,97040.59
2023-04-10T08:31:04.145Z,97037.19
2023-04-10T08:32:05.699Z,97046.81
2023-04-10T08:33:07.127Z,97044.78
2023-04-10T08:34:08.525Z,97038.44
2023-04-10T08:35:10.031Z,97037.44
2023-04-10T08:36:12.813Z,97045.59
2023-04-10T08:37:15.571Z,97036.38
2023-04-10T08:38:17.138Z,97032.59
2023-04-10T08:39:18.552Z,97026.28
2023-04-10T08:40:20.305Z,97030.06
2023-04-10T08:41:22.012Z,97030.47
2023-04-10T08:42:23.521Z,97032.53
2023-04-10T08:43:26.582Z,97036.13
2023-04-10T08:44:28.275Z,97026.44
2023-04-10T08:45:29.778Z,97038.91
2023-04-10T08:46:35.973Z,97042.94
2023-04-10T08:47:39.199Z,97037.22
2023-04-10T08:48:52.827Z,97035.88
2023-04-10T08:49:56.701Z,97036.31
2023-04-10T08:51:01.457Z,97049.84
2023-04-10T08:52:07.160Z,97034.88
2023-04-10T08:53:13.647Z,97045.44
2023-04-10T08:54:20.083Z,97048.38
2023-04-10T08:55:21.603Z,97013.97
2023-04-10T08:56:24.473Z,97042.09
2023-04-10T08:57:27.264Z,97041.22
2023-04-10T08:58:28.823Z,97044.47
2023-04-10T08:59:31.425Z,97045.00
2023-04-10T09:00:38.508Z,97038.53
2023-04-10T09:01:40.500Z,97031.38
2023-04-10T09:02:42.813Z,97041.16
2023-04-10T09:03:48.293Z,97041.59
2023-04-10T09:04:52.247Z,97038.72
2023-04-10T09:05:54.828Z,97034.78
2023-04-10T09:06:56.205Z,97035.91
2023-04-10T09:07:57.646Z,97025.44
2023-04-10T09:10:08.675Z,97030.91
2023-04-10T09:11:10.937Z,97022.91
2023-04-10T09:12:14.184Z,97027.13
2023-04-10T09:13:15.525Z,97024.91
2023-04-10T09:14:25.307Z,97028.34
2023-04-10T09:15:26.811Z,97020.63
2023-04-10T09:16:30.429Z,97019.56
2023-04-10T09:17:32.165Z,97007.50
2023-04-10T09:18:49.841Z,97012.63
2023-04-10T09:19:54.555Z,97011.06
2023-04-10T09:21:06.778Z,97009.47
2023-04-10T09:22:08.423Z,97010.50
2023-04-10T09:23:24.588Z,97006.38
2023-04-10T09:24:27.288Z,97012.00
2023-04-10T09:25:34.224Z,97012.75
2023-04-10T09:26:35.830Z,96998.72
2023-04-10T09:27:38.506Z,97014.31
2023-04-10T09:29:00.032Z,97007.88
2023-04-10T09:30:02.127Z,96998.88
2023-04-10T09:31:27.479Z,96995.75
2023-04-10T09:32:45.735Z,96997.16
2023-04-10T09:33:47.158Z,96998.09
2023-04-10T09:34:57.170Z,96997.88
2023-04-10T09:36:03.993Z,96992.09
2023-04-10T09:37:06.053Z,96992.78
2023-04-10T09:38:17.422Z,96986.16
2023-04-10T09:39:18.979Z,96989.97
2023-04-10T09:40:25.596Z,96989.28
2023-04-10T09:41:27.174Z,96987.09
2023-04-10T09:42:39.503Z,96987.69
2023-04-10T09:43:43.353Z,96985.44
2023-04-10T09:44:44.823Z,96976.84
2023-04-10T09:45:57.201Z,96971.41
2023-04-10T09:47:14.893Z,96981.81
2023-04-10T09:48:16.600Z,96979.22
2023-04-10T09:49:18.219Z,96984.81
2023-04-10T09:50:37.820Z,96978.69
2023-04-10T09:51:40.926Z,96973.69
2023-04-10T09:52:42.313Z,96967.16
2023-04-10T09:53:50.985Z,96963.06
2023-04-10T09:54:57.507Z,96961.13
2023-04-10T09:55:59.707Z,96965.63
2023-04-10T09:57:01.318Z,96957.75
2023-04-10T09:58:04.217Z,96961.13
2023-04-10T09:59:07.545Z,96952.56
2023-04-10T10:00:10.170Z,96959.09
2023-04-10T10:01:12.528Z,96956.91
2023-04-10T10:02:14.986Z,96942.66
2023-04-10T10:03:21.070Z,96951.38
2023-04-10T10:04:23.689Z,96947.53
2023-04-10T10:05:30.472Z,96954.81
2023-04-10T10:06:32.892Z,96947.63
2023-04-10T10:07:35.068Z,96933.78
2023-04-10T10:08:36.745Z,96946.03
2023-04-10T10:09:38.667Z,96935.75
2023-04-10T10:10:47.078Z,96935.19
2023-04-10T10:11:51.706Z,96933.16
2023-04-10T10:12:59.542Z,96924.25
2023-04-10T10:14:05.614Z,96928.00
2023-04-10T10:15:25.735Z,96924.56
2023-04-10T10:16:37.180Z,96933.22
2023-04-10T10:17:45.444Z,96930.75
2023-04-10T10:19:09.118Z,96929.06
2023-04-10T10:20:13.187Z,96926.28
2023-04-10T10:21:15.845Z,96917.09
2023-04-10T10:22:17.575Z,96917.94
2023-04-10T10:23:19.863Z,96913.25
2023-04-10T10:24:26.036Z,96915.72
2023-04-10T10:25:27.839Z,96925.13
2023-04-10T10:26:30.413Z,96921.38
2023-04-10T10:27:33.603Z,96910.72
2023-04-10T10:28:36.058Z,96918.53
2023-04-10T10:29:39.424Z,96914.16
2023-04-10T10:30:42.321Z,96908.19
2023-04-10T10:31:44.442Z,96905.88
2023-04-10T10:32:46.479Z,96911.88
2023-04-10T10:33:48.006Z,96906.88
2023-04-10T10:34:52.908Z,96906.94
2023-04-10T10:35:54.642Z,96898.66
2023-04-10T10:36:58.080Z,96901.50
2023-04-10T10:38:00.366Z,96905.41
2023-04-10T10:39:15.703Z,96898.97
2023-04-10T10:40:19.803Z,96897.72
2023-04-10T10:41:28.634Z,96901.88
2023-04-10T10:42:40.727Z,96899.47
2023-04-10T10:44:01.700Z,96898.03
2023-04-10T10:45:17.305Z,96899.19
2023-04-10T10:46:41.833Z,96901.50
2023-04-10T10:47:50.835Z,96899.16
2023-04-10T10:48:56.864Z,96890.34
2023-04-10T10:50:03.476Z,96905.19
2023-04-10T10:51:05.222Z,96885.34
2023-04-10T10:52:06.857Z,96895.19
2023-04-10T10:53:08.261Z,96895.22
2023-04-10T10:54:35.087Z,96891.78
2023-04-10T10:55:37.034Z,96897.50
2023-04-10T10:56:38.551Z,96890.53
2023-04-10T10:57:46.800Z,96901.81
2023-04-10T10:58:48.957Z,96891.19
2023-04-10T10:59:50.620Z,96887.47
2023-04-10T11:00:52.009Z,96874.69
2023-04-10T11:02:16.744Z,96884.28
2023-04-10T11:03:18.263Z,96892.16
2023-04-10T11:04:45.772Z,96882.31
2023-04-10T11:05:51.459Z,96887.97
2023-04-10T11:06:52.895Z,96878.06
2023-04-10T11:08:00.439Z,96882.09
2023-04-10T11:09:02.231Z,96875.63
2023-04-10T11:10:03.714Z,96876.63
2023-04-10T11:11:07.091Z,96875.09
2023-04-10T11:12:08.570Z,96872.81
2023-04-10T11:13:17.878Z,96873.41
2023-04-10T11:14:20.008Z,96870.41
2023-04-10T11:15:25.782Z,96867.69
2023-04-10T11:16:30.027Z,96869.09
2023-04-10T11:17:54.125Z,96864.66
2023-04-10T11:19:06.411Z,96858.91
2023-04-10T11:20:15.756Z,96857.97
2023-04-10T11:21:19.558Z,96858.22
2023-04-10T11:22:20.926Z,96859.06
2023-04-10T11:23:22.355Z,96858.34
2023-04-10T11:24:23.796Z,96865.44
2023-04-10T11:25:55.849Z,96864.28
2023-04-10T11:26:57.461Z,96856.34
2023-04-10T11:27:58.968Z,96861.09
2023-04-10T11:29:26.603Z,96866.22
2023-04-10T11:30:36.101Z,96859.47
2023-04-10T11:31:37.677Z,96864.16
2023-04-10T11:32:42.999Z,96853.03
2023-04-10T11:33:45.824Z,96859.50
2023-04-10T11:34:47.189Z,96862.56
2023-04-10T11:35:48.834Z,96867.50
2023-04-10T11:36:51.012Z,96854.84
2023-04-10T11:37:52.968Z,96854.06
2023-04-10T11:38:58.460Z,96853.63
2023-04-10T11:40:06.452Z,96851.94
2023-04-10T11:41:07.867Z,96843.16
2023-04-10T11:42:11.768Z,96850.84
2023-04-10T11:43:14.756Z,96854.72
2023-04-10T11:44:21.086Z,96836.63
2023-04-10T11:45:25.357Z,96848.81
2023-04-10T11:46:28.017Z,96857.00
2023-04-10T11:47:29.764Z,96841.31
2023-04-10T11:48:32.062Z,96836.59
2023-04-10T11:49:34.690Z,96835.09
2023-04-10T11:50:36.464Z,96828.56
2023-04-10T11:51:40.016Z,96831.97
2023-04-10T11:52:41.433Z,96820.25
2023-04-10T11:53:42.953Z,96807.50
2023-04-10T11:54:49.014Z,96816.53
2023-04-10T11:55:50.386Z,96811.38
2023-04-10T11:57:02.177Z,96818.38
2023-04-10T11:58:03.535Z,96804.25
2023-04-10T11:59:16.179Z,96797.38
2023-04-10T12:00:24.164Z,96806.84
2023-04-10T12:01:25.617Z,96811.25
2023-04-10T12:02:27.218Z,96811.78
2023-04-10T12:03:47.141Z,96804.84
2023-04-10T12:04:58.034Z,96795.22
2023-04-10T12:05:59.561Z,96789.69
2023-04-10T12:07:01.423Z,96805.06
2023-04-10T12:08:03.027Z,96801.88
2023-04-10T12:09:14.154Z,96795.94
2023-04-10T12:10:16.009Z,96794.91
2023-04-10T12:11:20.366Z,96810.44
2023-04-10T12:12:36.192Z,96797.38
2023-04-10T12:13:38.327Z,96806.63
2023-04-10T12:14:41.688Z,96799.34
2023-04-10T12:15:43.216Z,96790.63
2023-04-10T12:16:46.316Z,96804.19
2023-04-10T12:17:47.787Z,96788.13
2023-04-10T12:18:50.127Z,96795.59
2023-04-10T12:19:51.639Z,96793.25
2023-04-10T12:20:57.117Z,96806.84
2023-04-10T12:21:59.496Z,96798.50
2023-04-10T12:23:03.012Z,96799.94
2023-04-10T12:24:05.354Z,96798.63
2023-04-10T12:25:11.843Z,96787.91
2023-04-10T12:26:15.618Z,96786.81
2023-04-10T12:27:21.436Z,96784.44
2023-04-10T12:28:22.885Z,96786.59
2023-04-10T12:29:27.767Z,96780.56
2023-04-10T12:30:29.237Z,96772.78
2023-04-10T12:31:35.101Z,96784.06
2023-04-10T12:32:36.685Z,96796.03
2023-04-10T12:33:39.192Z,96780.88
2023-04-10T12:34:41.077Z,96781.59
2023-04-10T12:35:42.751Z,96790.88
2023-04-10T12:36:52.334Z,96781.69
2023-04-10T12:37:54.820Z,96774.19
2023-04-10T12:39:00.677Z,96777.88
2023-04-10T12:40:08.770Z,96772.41
2023-04-10T12:41:11.930Z,96767.03
2023-04-10T12:42:23.344Z,96753.75
2023-04-10T12:43:36.496Z,96760.38
2023-04-10T12:44:54.561Z,96756.47
2023-04-10T12:45:56.923Z,96756.69
2023-04-10T12:47:02.020Z,96767.88
2023-04-10T12:48:03.608Z,96760.25
2023-04-10T12:49:11.697Z,96758.31
2023-04-10T12:50:18.229Z,96754.41
2023-04-10T12:51:19.855Z,96747.53
2023-04-10T12:52:24.244Z,96769.22
2023-04-10T12:53:26.279Z,96757.41
2023-04-10T12:54:28.978Z,96766.47
2023-04-10T12:55:31.171Z,96761.06
2023-04-10T12:56:42.782Z,96747.91
2023-04-10T12:57:46.730Z,96743.03
2023-04-10T12:58:48.206Z,96749.66
2023-04-10T12:59:50.164Z,96741.50
2023-04-10T13:00:51.524Z,96731.22
2023-04-10T13:01:56.367Z,96740.88
2023-04-10T13:02:58.120Z,96738.06
2023-04-10T13:03:59.702Z,96750.31
2023-04-10T13:05:01.817Z,96744.66
2023-04-10T13:06:06.194Z,96739.81
2023-04-10T13:07:07.904Z,96737.09
2023-04-10T13:08:09.358Z,96748.03
2023-04-10T13:09:11.112Z,96743.13
2023-04-10T13:10:12.704Z,96747.25
2023-04-10T13:11:14.098Z,96739.56
2023-04-10T13:12:16.214Z,96746.16
2023-04-10T13:13:17.858Z,96739.97
2023-04-10T13:14:19.611Z,96743.28
2023-04-10T13:15:21.030Z,96740.78
2023-04-10T13:16:22.451Z,96735.97
2023-04-10T13:17:25.023Z,96733.13
2023-04-10T13:18:26.804Z,96732.31
2023-04-10T13:19:28.197Z,96737.50
2023-04-10T13:20:29.758Z,96739.97
2023-04-10T13:21:31.208Z,96744.41
2023-04-10T13:22:32.808Z,96740.34
2023-04-10T13:23:34.223Z,96742.25
2023-04-10T13:24:36.998Z,96738.59
2023-04-10T13:25:40.852Z,96736.66
2023-04-10T13:26:43.001Z,96731.59
2023-04-10T13:27:44.402Z,96737.16
2023-04-10T13:28:45.870Z,96727.63
2023-04-10T13:29:47.285Z,96758.13
2023-04-10T13:30:48.842Z,96739.72
2023-04-10T13:31:50.686Z,96736.88
2023-04-10T13:32:52.171Z,96735.13
2023-04-10T13:33:53.593Z,96727.41
2023-04-10T13:34:56.019Z,96728.59
2023-04-10T13:35:57.507Z,96719.22
2023-04-10T13:36:59.871Z,96724.75
2023-04-10T13:38:01.617Z,96721.88
2023-04-10T13:39:03.047Z,96717.84
2023-04-10T13:40:05.212Z,96713.81
2023-04-10T13:41:06.865Z,96717.78
2023-04-10T13:42:08.225Z,96709.53
2023-04-10T13:43:09.626Z,96711.81
2023-04-10T13:44:11.001Z,96715.34
2023-04-10T13:45:12.338Z,96710.50
2023-04-10T13:46:13.776Z,96709.25
2023-04-10T13:47:15.662Z,96702.38
2023-04-10T13:48:24.397Z,96699.03
2023-04-10T13:49:31.243Z,96706.38
2023-04-10T13:50:33.449Z,96697.78
2023-04-10T13:51:34.939Z,96706.13
2023-04-10T13:52:36.367Z,96692.50
2023-04-10T13:53:37.735Z,96702.81
2023-04-10T13:54:39.140Z,96699.97
2023-04-10T13:55:43.640Z,96691.72
2023-04-10T13:56:46.360Z,96693.50
2023-04-10T13:57:47.861Z,96692.09
2023-04-10T13:58:49.319Z,96686.88
2023-04-10T13:59:50.696Z,96683.28
2023-04-10T14:00:52.222Z,96676.19
2023-04-10T14:01:53.893Z,96683.41
2023-04-10T14:02:55.677Z,96677.50
2023-04-10T14:03:57.384Z,96676.56
2023-04-10T14:04:58.860Z,96679.59
2023-04-10T14:06:00.238Z,96679.44
2023-04-10T14:07:02.138Z,96666.91
2023-04-10T14:08:03.815Z,96669.06
2023-04-10T14:09:05.206Z,96677.69
2023-04-10T14:10:07.537Z,96674.03
2023-04-10T14:11:09.404Z,96666.44
2023-04-10T14:12:10.865Z,96671.16
2023-04-10T14:13:12.281Z,96665.66
2023-04-10T14:14:13.618Z,96650.59
2023-04-10T14:15:15.480Z,96658.50
2023-04-10T14:16:16.909Z,96672.81
2023-04-10T14:17:18.400Z,96665.84
2023-04-10T14:18:19.864Z,96661.03
2023-04-10T14:19:21.304Z,96662.50
2023-04-10T14:20:22.784Z,96662.59
2023-04-10T14:21:24.153Z,96666.91
2023-04-10T14:22:25.546Z,96660.13
2023-04-10T14:23:26.984Z,96653.56
2023-04-10T14:24:28.423Z,96653.81
2023-04-10T14:25:30.042Z,96658.78
2023-04-10T14:26:31.521Z,96657.13
2023-04-10T14:27:33.635Z,96660.47
2023-04-10T14:28:35.169Z,96657.09
2023-04-10T14:29:40.714Z,96666.94
2023-04-10T14:30:50.875Z,96662.03
2023-04-10T14:31:58.033Z,96660.81
2023-04-10T14:32:59.926Z,96659.59
2023-04-10T14:34:01.466Z,96660.25
2023-04-10T14:35:02.884Z,96659.78
2023-04-10T14:36:04.736Z,96657.38
2023-04-10T14:37:07.292Z,96656.25
2023-04-10T14:38:08.790Z,96660.34
2023-04-10T14:39:10.330Z,96654.44
2023-04-10T14:40:11.872Z,96652.03
2023-04-10T14:41:13.326Z,96648.31
2023-04-10T14:42:14.718Z,96653.78
2023-04-10T14:43:16.877Z,96655.72
2023-04-10T14:44:18.571Z,96650.44
2023-04-10T14:45:20.043Z,96645.59
2023-04-10T14:46:21.462Z,96647.28
2023-04-10T14:47:23.724Z,96651.53
2023-04-10T14:48:25.430Z,96641.59
2023-04-10T14:49:27.069Z,96633.19
2023-04-10T14:50:32.006Z,96637.88
2023-04-10T14:51:33.598Z,96639.59
2023-04-10T14:52:35.037Z,96643.72
2023-04-10T14:53:36.472Z,96626.16
2023-04-10T14:54:38.073Z,96639.88
2023-04-10T14:55:39.422Z,96628.44
2023-04-10T14:56:40.896Z,96626.25
2023-04-10T14:57:42.268Z,96629.19
2023-04-10T14:58:43.802Z,96624.13
2023-04-10T14:59:45.376Z,96618.50
2023-04-10T15:00:47.008Z,96626.19
2023-04-10T15:01:48.764Z,96628.47
2023-04-10T15:02:50.877Z,96621.88
2023-04-10T15:03:53.357Z,96626.81
2023-04-10T15:04:55.341Z,96622.38
2023-04-10T15:06:00.605Z,96615.59
2023-04-10T15:07:02.017Z,96609.25
2023-04-10T15:08:03.407Z,96610.78
2023-04-10T15:09:04.984Z,96608.31
2023-04-10T15:10:07.090Z,96621.34
2023-04-10T15:11:08.453Z,96609.78
2023-04-10T15:12:10.662Z,96602.09
2023-04-10T15:13:12.116Z,96606.91
2023-04-10T15:14:13.484Z,96607.56
2023-04-10T15:15:15.067Z,96611.38
2023-04-10T15:16:16.865Z,96609.50
2023-04-10T15:17:21.726Z,96601.56
2023-04-10T15:18:25.493Z,96598.13
2023-04-10T15:19:26.982Z,96597.88
2023-04-10T15:20:28.413Z,96584.13
2023-04-10T15:21:29.781Z,96578.84
2023-04-10T15:22:31.178Z,96593.97
2023-04-10T15:23:32.711Z,96579.72
2023-04-10T15:24:46.891Z,96582.25
2023-04-10T15:25:50.978Z,96586.44
2023-04-10T15:26:53.550Z,96581.25
2023-04-10T15:27:55.539Z,96582.16
2023-04-10T15:28:56.964Z,96576.00
2023-04-10T15:29:58.358Z,96568.09
2023-04-10T15:30:59.889Z,96567.41
2023-04-10T15:32:01.367Z,96574.56
2023-04-10T15:33:03.011Z,96575.16
2023-04-10T15:34:04.507Z,96571.22
2023-04-10T15:35:06.508Z,96583.66
2023-04-10T15:36:08.501Z,96573.25
2023-04-10T15:37:10.008Z,96577.69
2023-04-10T15:38:11.630Z,96572.19
2023-04-10T15:39:13.093Z,96565.75
2023-04-10T15:40:14.592Z,96562.50
2023-04-10T15:41:16.063Z,96568.41
2023-04-10T15:42:17.514Z,96562.94
2023-04-10T15:43:18.900Z,96564.72
2023-04-10T15:44:20.370Z,96553.75
2023-04-10T15:45:21.694Z,96556.63
2023-04-10T15:46:23.176Z,96559.03
2023-04-10T15:47:24.733Z,96548.72
2023-04-10T15:48:26.400Z,96562.41
2023-04-10T15:49:36.952Z,96553.88
2023-04-10T15:50:43.082Z,96551.53
2023-04-10T15:51:44.813Z,96553.09
2023-04-10T15:52:46.191Z,96555.44
2023-04-10T15:53:47.627Z,96554.72
2023-04-10T15:54:49.375Z,96552.22
2023-04-10T15:55:51.047Z,96550.53
2023-04-10T15:56:52.433Z,96544.50
2023-04-10T15:57:53.810Z,96546.94
2023-04-10T15:58:55.447Z,96549.16
2023-04-10T15:59:58.819Z,96546.44
2023-04-10T16:01:00.707Z,96516.94
2023-04-10T16:02:02.344Z,96547.28
2023-04-10T16:03:04.368Z,96536.66
2023-04-10T16:04:05.963Z,96540.97
2023-04-10T16:05:09.148Z,96539.69
2023-04-10T16:06:10.761Z,96542.13
2023-04-10T16:07:12.115Z,96541.50
2023-04-10T16:08:13.708Z,96539.41
2023-04-10T16:09:24.798Z,96537.19
2023-04-10T16:10:27.795Z,96537.94
2023-04-10T16:11:29.182Z,96530.03
2023-04-10T16:12:30.712Z,96528.44
2023-04-10T16:13:32.382Z,96528.53
2023-04-10T16:14:33.774Z,96525.91
2023-04-10T16:15:37.185Z,96528.63
2023-04-10T16:16:38.746Z,96523.69
2023-04-10T16:17:40.374Z,96533.91
2023-04-10T16:18:44.309Z,96528.63
2023-04-10T16:19:45.711Z,96530.56
2023-04-10T16:20:47.192Z,96535.06
2023-04-10T16:21:48.560Z,96533.59
2023-04-10T16:22:50.146Z,96542.66
2023-04-10T16:23:51.536Z,96530.97
2023-04-10T16:25:00.396Z,96538.34
